sensor_id;sensor_type;location;lat;lon;timestamp;temperature;humidity
52879;DHT22;38747;53.140;6.498;2023-09-08T00:01:24;18.80;1.00
52879;DHT22;38747;53.140;6.498;2023-09-08T00:03:50;18.70;1.00
52879;DHT22;38747;53.140;6.498;2023-09-08T00:06:16;18.70;1.00
52879;DHT22;38747;53.140;6.498;2023-09-08T00:08:41;18.70;1.00
52879;DHT22;38747;53.140;6.498;2023-09-08T00:11:08;18.60;1.00
52879;DHT22;38747;53.140;6.498;2023-09-08T00:13:34;18.60;1.00
52879;DHT22;38747;53.140;6.498;2023-09-08T00:16:00;18.60;1.00
52879;DHT22;38747;53.140;6.498;2023-09-08T00:18:25;18.50;1.00
52879;DHT22;38747;53.140;6.498;2023-09-08T00:20:51;18.50;1.00
52879;DHT22;38747;53.140;6.498;2023-09-08T00:23:16;18.40;1.00
52879;DHT22;38747;53.140;6.498;2023-09-08T00:25:45;18.40;1.00
52879;DHT22;38747;53.140;6.498;2023-09-08T00:28:11;18.40;1.00
52879;DHT22;38747;53.140;6.498;2023-09-08T00:30:36;18.30;1.00
52879;DHT22;38747;53.140;6.498;2023-09-08T00:33:02;18.30;1.10
52879;DHT22;38747;53.140;6.498;2023-09-08T00:35:27;18.30;1.00
52879;DHT22;38747;53.140;6.498;2023-09-08T00:37:53;18.30;1.90
52879;DHT22;38747;53.140;6.498;2023-09-08T00:40:19;18.20;5.90
52879;DHT22;38747;53.140;6.498;2023-09-08T00:42:44;18.20;6.80
52879;DHT22;38747;53.140;6.498;2023-09-08T00:45:10;18.20;14.60
52879;DHT22;38747;53.140;6.498;2023-09-08T00:47:35;18.10;13.40
52879;DHT22;38747;53.140;6.498;2023-09-08T00:50:04;18.10;17.60
52879;DHT22;38747;53.140;6.498;2023-09-08T00:52:30;18.10;20.90
52879;DHT22;38747;53.140;6.498;2023-09-08T00:55:01;18.10;21.00
52879;DHT22;38747;53.140;6.498;2023-09-08T00:57:26;18.00;22.60
52879;DHT22;38747;53.140;6.498;2023-09-08T00:59:53;18.00;20.50
52879;DHT22;38747;53.140;6.498;2023-09-08T01:02:19;18.00;21.10
52879;DHT22;38747;53.140;6.498;2023-09-08T01:04:45;18.00;22.90
52879;DHT22;38747;53.140;6.498;2023-09-08T01:07:11;17.90;23.70
52879;DHT22;38747;53.140;6.498;2023-09-08T01:09:37;17.90;26.60
52879;DHT22;38747;53.140;6.498;2023-09-08T01:12:07;17.90;32.20
52879;DHT22;38747;53.140;6.498;2023-09-08T01:14:32;17.90;30.00
52879;DHT22;38747;53.140;6.498;2023-09-08T01:16:58;17.90;42.40
52879;DHT22;38747;53.140;6.498;2023-09-08T01:19:24;17.80;36.50
52879;DHT22;38747;53.140;6.498;2023-09-08T01:22:15;17.80;38.80
52879;DHT22;38747;53.140;6.498;2023-09-08T01:27:33;17.80;34.70
52879;DHT22;38747;53.140;6.498;2023-09-08T01:30:01;17.80;38.40
52879;DHT22;38747;53.140;6.498;2023-09-08T01:32:29;17.80;38.00
52879;DHT22;38747;53.140;6.498;2023-09-08T01:34:56;17.70;39.80
52879;DHT22;38747;53.140;6.498;2023-09-08T01:37:23;17.70;41.10
52879;DHT22;38747;53.140;6.498;2023-09-08T01:39:49;17.70;42.00
52879;DHT22;38747;53.140;6.498;2023-09-08T01:42:15;17.60;47.00
52879;DHT22;38747;53.140;6.498;2023-09-08T01:44:40;17.60;43.30
52879;DHT22;38747;53.140;6.498;2023-09-08T01:47:06;17.60;47.70
52879;DHT22;38747;53.140;6.498;2023-09-08T01:49:32;17.60;43.80
52879;DHT22;38747;53.140;6.498;2023-09-08T01:51:57;17.60;41.50
52879;DHT22;38747;53.140;6.498;2023-09-08T01:54:23;17.60;40.10
52879;DHT22;38747;53.140;6.498;2023-09-08T01:56:48;17.50;42.20
52879;DHT22;38747;53.140;6.498;2023-09-08T01:59:14;17.50;48.20
52879;DHT22;38747;53.140;6.498;2023-09-08T02:01:40;17.50;46.20
52879;DHT22;38747;53.140;6.498;2023-09-08T02:04:05;17.50;48.50
52879;DHT22;38747;53.140;6.498;2023-09-08T02:06:31;17.40;51.30
52879;DHT22;38747;53.140;6.498;2023-09-08T02:08:57;17.40;49.00
52879;DHT22;38747;53.140;6.498;2023-09-08T02:11:22;17.40;53.60
52879;DHT22;38747;53.140;6.498;2023-09-08T02:13:48;17.40;54.10
52879;DHT22;38747;53.140;6.498;2023-09-08T02:16:14;17.40;54.00
52879;DHT22;38747;53.140;6.498;2023-09-08T02:18:44;17.30;58.20
52879;DHT22;38747;53.140;6.498;2023-09-08T02:21:10;17.30;57.20
52879;DHT22;38747;53.140;6.498;2023-09-08T02:23:36;17.30;55.40
52879;DHT22;38747;53.140;6.498;2023-09-08T02:26:02;17.30;57.00
52879;DHT22;38747;53.140;6.498;2023-09-08T02:28:27;17.30;59.10
52879;DHT22;38747;53.140;6.498;2023-09-08T02:30:54;17.20;60.20
52879;DHT22;38747;53.140;6.498;2023-09-08T02:33:19;17.20;62.50
52879;DHT22;38747;53.140;6.498;2023-09-08T02:35:45;17.20;65.50
52879;DHT22;38747;53.140;6.498;2023-09-08T02:38:11;17.20;60.20
52879;DHT22;38747;53.140;6.498;2023-09-08T02:40:37;17.20;63.70
52879;DHT22;38747;53.140;6.498;2023-09-08T02:43:03;17.10;64.50
52879;DHT22;38747;53.140;6.498;2023-09-08T02:45:29;17.10;64.10
52879;DHT22;38747;53.140;6.498;2023-09-08T02:47:55;17.10;62.90
52879;DHT22;38747;53.140;6.498;2023-09-08T02:50:21;17.10;62.10
52879;DHT22;38747;53.140;6.498;2023-09-08T02:52:47;17.10;63.70
52879;DHT22;38747;53.140;6.498;2023-09-08T02:55:12;17.00;67.60
52879;DHT22;38747;53.140;6.498;2023-09-08T02:57:39;17.00;70.20
52879;DHT22;38747;53.140;6.498;2023-09-08T03:00:05;17.00;67.70
52879;DHT22;38747;53.140;6.498;2023-09-08T03:02:33;16.90;68.30
52879;DHT22;38747;53.140;6.498;2023-09-08T03:04:59;16.90;69.40
52879;DHT22;38747;53.140;6.498;2023-09-08T03:07:26;16.90;68.40
52879;DHT22;38747;53.140;6.498;2023-09-08T03:09:52;16.90;67.10
52879;DHT22;38747;53.140;6.498;2023-09-08T03:12:18;16.90;70.00
52879;DHT22;38747;53.140;6.498;2023-09-08T03:14:43;16.80;69.70
52879;DHT22;38747;53.140;6.498;2023-09-08T03:17:10;16.80;72.60
52879;DHT22;38747;53.140;6.498;2023-09-08T03:19:36;16.80;72.70
52879;DHT22;38747;53.140;6.498;2023-09-08T03:22:02;16.80;74.40
52879;DHT22;38747;53.140;6.498;2023-09-08T03:24:27;16.80;75.40
52879;DHT22;38747;53.140;6.498;2023-09-08T03:26:53;16.70;72.70
52879;DHT22;38747;53.140;6.498;2023-09-08T03:29:18;16.70;75.20
52879;DHT22;38747;53.140;6.498;2023-09-08T03:31:44;16.70;73.90
52879;DHT22;38747;53.140;6.498;2023-09-08T03:34:10;16.70;73.30
52879;DHT22;38747;53.140;6.498;2023-09-08T03:36:35;16.70;77.30
52879;DHT22;38747;53.140;6.498;2023-09-08T03:39:02;16.60;74.40
52879;DHT22;38747;53.140;6.498;2023-09-08T03:41:27;16.60;80.90
52879;DHT22;38747;53.140;6.498;2023-09-08T03:43:53;16.60;80.60
52879;DHT22;38747;53.140;6.498;2023-09-08T03:46:18;16.50;77.10
52879;DHT22;38747;53.140;6.498;2023-09-08T03:48:44;16.50;81.20
52879;DHT22;38747;53.140;6.498;2023-09-08T03:51:10;16.50;81.30
52879;DHT22;38747;53.140;6.498;2023-09-08T03:53:38;16.50;81.20
52879;DHT22;38747;53.140;6.498;2023-09-08T03:56:03;16.50;84.40
52879;DHT22;38747;53.140;6.498;2023-09-08T03:58:29;16.50;83.80
52879;DHT22;38747;53.140;6.498;2023-09-08T04:00:55;16.40;85.30
52879;DHT22;38747;53.140;6.498;2023-09-08T04:03:20;16.40;87.00
52879;DHT22;38747;53.140;6.498;2023-09-08T04:05:46;16.40;87.30
52879;DHT22;38747;53.140;6.498;2023-09-08T04:08:11;16.40;88.80
52879;DHT22;38747;53.140;6.498;2023-09-08T04:10:37;16.30;87.70
52879;DHT22;38747;53.140;6.498;2023-09-08T04:13:03;16.30;88.50
52879;DHT22;38747;53.140;6.498;2023-09-08T04:15:29;16.30;90.30
52879;DHT22;38747;53.140;6.498;2023-09-08T04:17:55;16.30;89.00
52879;DHT22;38747;53.140;6.498;2023-09-08T04:20:22;16.30;84.90
52879;DHT22;38747;53.140;6.498;2023-09-08T04:22:48;16.30;87.80
52879;DHT22;38747;53.140;6.498;2023-09-08T04:25:14;16.30;88.80
52879;DHT22;38747;53.140;6.498;2023-09-08T04:27:40;16.30;91.10
52879;DHT22;38747;53.140;6.498;2023-09-08T04:30:06;16.20;91.30
52879;DHT22;38747;53.140;6.498;2023-09-08T04:32:32;16.20;91.20
52879;DHT22;38747;53.140;6.498;2023-09-08T04:34:57;16.20;91.00
52879;DHT22;38747;53.140;6.498;2023-09-08T04:37:23;16.20;91.40
52879;DHT22;38747;53.140;6.498;2023-09-08T04:39:49;16.20;90.70
52879;DHT22;38747;53.140;6.498;2023-09-08T04:42:14;16.20;91.50
52879;DHT22;38747;53.140;6.498;2023-09-08T04:44:40;16.20;92.80
52879;DHT22;38747;53.140;6.498;2023-09-08T04:47:06;16.10;92.00
52879;DHT22;38747;53.140;6.498;2023-09-08T04:49:31;16.10;94.20
52879;DHT22;38747;53.140;6.498;2023-09-08T04:51:57;16.10;93.50
52879;DHT22;38747;53.140;6.498;2023-09-08T04:54:23;16.10;95.10
52879;DHT22;38747;53.140;6.498;2023-09-08T04:56:52;16.00;93.10
52879;DHT22;38747;53.140;6.498;2023-09-08T04:59:17;16.00;94.00
52879;DHT22;38747;53.140;6.498;2023-09-08T05:01:43;16.00;94.80
52879;DHT22;38747;53.140;6.498;2023-09-08T05:04:09;16.00;93.80
52879;DHT22;38747;53.140;6.498;2023-09-08T05:06:36;16.00;94.60
52879;DHT22;38747;53.140;6.498;2023-09-08T05:09:01;16.00;95.60
52879;DHT22;38747;53.140;6.498;2023-09-08T05:11:27;15.90;95.20
52879;DHT22;38747;53.140;6.498;2023-09-08T05:13:53;16.00;96.20
52879;DHT22;38747;53.140;6.498;2023-09-08T05:16:19;15.90;96.60
52879;DHT22;38747;53.140;6.498;2023-09-08T05:18:51;16.00;96.20
52879;DHT22;38747;53.140;6.498;2023-09-08T05:21:17;16.00;98.00
52879;DHT22;38747;53.140;6.498;2023-09-08T05:23:42;16.00;96.60
52879;DHT22;38747;53.140;6.498;2023-09-08T05:26:08;16.00;96.50
52879;DHT22;38747;53.140;6.498;2023-09-08T05:28:34;16.00;97.10
52879;DHT22;38747;53.140;6.498;2023-09-08T05:30:59;16.00;96.50
52879;DHT22;38747;53.140;6.498;2023-09-08T05:33:25;16.00;97.10
52879;DHT22;38747;53.140;6.498;2023-09-08T05:35:50;16.10;97.10
52879;DHT22;38747;53.140;6.498;2023-09-08T05:38:16;16.10;96.30
52879;DHT22;38747;53.140;6.498;2023-09-08T05:40:42;16.10;94.90
52879;DHT22;38747;53.140;6.498;2023-09-08T05:43:07;16.10;95.30
52879;DHT22;38747;53.140;6.498;2023-09-08T05:45:33;16.20;95.00
52879;DHT22;38747;53.140;6.498;2023-09-08T05:48:00;16.20;94.50
52879;DHT22;38747;53.140;6.498;2023-09-08T05:50:25;16.20;94.80
52879;DHT22;38747;53.140;6.498;2023-09-08T05:52:51;16.30;94.20
52879;DHT22;38747;53.140;6.498;2023-09-08T05:55:17;16.30;92.10
52879;DHT22;38747;53.140;6.498;2023-09-08T05:57:43;16.40;92.50
52879;DHT22;38747;53.140;6.498;2023-09-08T06:00:08;16.40;91.30
52879;DHT22;38747;53.140;6.498;2023-09-08T06:02:34;16.40;90.70
52879;DHT22;38747;53.140;6.498;2023-09-08T06:05:00;16.50;90.60
52879;DHT22;38747;53.140;6.498;2023-09-08T06:07:25;16.50;90.60
52879;DHT22;38747;53.140;6.498;2023-09-08T06:09:51;16.60;91.60
52879;DHT22;38747;53.140;6.498;2023-09-08T06:12:16;16.60;91.70
52879;DHT22;38747;53.140;6.498;2023-09-08T06:14:42;16.70;92.30
52879;DHT22;38747;53.140;6.498;2023-09-08T06:17:09;16.70;91.80
52879;DHT22;38747;53.140;6.498;2023-09-08T06:19:35;16.80;90.70
52879;DHT22;38747;53.140;6.498;2023-09-08T06:22:00;16.80;86.10
52879;DHT22;38747;53.140;6.498;2023-09-08T06:24:26;16.90;80.60
52879;DHT22;38747;53.140;6.498;2023-09-08T06:26:52;17.00;76.40
52879;DHT22;38747;53.140;6.498;2023-09-08T06:29:17;17.00;75.40
52879;DHT22;38747;53.140;6.498;2023-09-08T06:31:43;17.10;82.80
52879;DHT22;38747;53.140;6.498;2023-09-08T06:34:08;17.20;83.60
52879;DHT22;38747;53.140;6.498;2023-09-08T06:36:34;17.20;73.80
52879;DHT22;38747;53.140;6.498;2023-09-08T06:39:00;17.30;75.70
52879;DHT22;38747;53.140;6.498;2023-09-08T06:41:25;17.30;72.90
52879;DHT22;38747;53.140;6.498;2023-09-08T06:43:52;17.40;71.20
52879;DHT22;38747;53.140;6.498;2023-09-08T06:46:18;17.40;71.60
52879;DHT22;38747;53.140;6.498;2023-09-08T06:48:43;17.50;69.20
52879;DHT22;38747;53.140;6.498;2023-09-08T06:51:09;17.60;67.00
52879;DHT22;38747;53.140;6.498;2023-09-08T06:53:36;17.70;68.10
52879;DHT22;38747;53.140;6.498;2023-09-08T06:56:02;17.70;66.60
52879;DHT22;38747;53.140;6.498;2023-09-08T06:58:28;17.80;63.60
52879;DHT22;38747;53.140;6.498;2023-09-08T07:00:54;17.90;70.70
52879;DHT22;38747;53.140;6.498;2023-09-08T07:03:20;18.00;60.10
52879;DHT22;38747;53.140;6.498;2023-09-08T07:05:48;18.00;51.80
52879;DHT22;38747;53.140;6.498;2023-09-08T07:08:14;18.10;43.40
52879;DHT22;38747;53.140;6.498;2023-09-08T07:10:40;18.20;42.10
52879;DHT22;38747;53.140;6.498;2023-09-08T07:13:05;18.30;45.40
52879;DHT22;38747;53.140;6.498;2023-09-08T07:15:31;18.30;42.70
52879;DHT22;38747;53.140;6.498;2023-09-08T07:17:56;18.40;41.10
52879;DHT22;38747;53.140;6.498;2023-09-08T07:20:22;18.50;41.40
52879;DHT22;38747;53.140;6.498;2023-09-08T07:22:48;18.50;37.00
52879;DHT22;38747;53.140;6.498;2023-09-08T07:25:13;18.60;45.40
52879;DHT22;38747;53.140;6.498;2023-09-08T07:27:39;18.70;43.70
52879;DHT22;38747;53.140;6.498;2023-09-08T07:30:05;18.80;39.70
52879;DHT22;38747;53.140;6.498;2023-09-08T07:32:31;18.90;28.70
52879;DHT22;38747;53.140;6.498;2023-09-08T07:34:57;19.00;16.10
52879;DHT22;38747;53.140;6.498;2023-09-08T07:37:22;19.10;13.00
52879;DHT22;38747;53.140;6.498;2023-09-08T07:39:49;19.20;4.80
52879;DHT22;38747;53.140;6.498;2023-09-08T07:42:15;19.30;9.30
52879;DHT22;38747;53.140;6.498;2023-09-08T07:44:41;19.30;3.80
52879;DHT22;38747;53.140;6.498;2023-09-08T07:47:06;19.40;1.00
52879;DHT22;38747;53.140;6.498;2023-09-08T07:49:35;19.50;1.00
52879;DHT22;38747;53.140;6.498;2023-09-08T07:52:01;19.60;1.00
52879;DHT22;38747;53.140;6.498;2023-09-08T07:54:26;19.70;1.00
52879;DHT22;38747;53.140;6.498;2023-09-08T07:56:52;19.70;1.00
52879;DHT22;38747;53.140;6.498;2023-09-08T07:59:17;19.80;1.00
52879;DHT22;38747;53.140;6.498;2023-09-08T08:01:43;19.80;1.00
52879;DHT22;38747;53.140;6.498;2023-09-08T08:04:09;19.90;1.00
52879;DHT22;38747;53.140;6.498;2023-09-08T08:06:34;20.00;1.00
52879;DHT22;38747;53.140;6.498;2023-09-08T08:09:00;20.00;1.00
52879;DHT22;38747;53.140;6.498;2023-09-08T08:11:26;20.10;1.00
52879;DHT22;38747;53.140;6.498;2023-09-08T08:13:52;20.20;1.00
52879;DHT22;38747;53.140;6.498;2023-09-08T08:16:18;20.30;1.00
52879;DHT22;38747;53.140;6.498;2023-09-08T08:18:45;20.40;1.00
52879;DHT22;38747;53.140;6.498;2023-09-08T08:21:10;20.40;1.00
52879;DHT22;38747;53.140;6.498;2023-09-08T08:23:36;20.50;1.00
52879;DHT22;38747;53.140;6.498;2023-09-08T08:26:03;20.60;1.00
52879;DHT22;38747;53.140;6.498;2023-09-08T08:28:30;20.70;1.00
52879;DHT22;38747;53.140;6.498;2023-09-08T08:30:55;20.80;1.00
52879;DHT22;38747;53.140;6.498;2023-09-08T08:33:22;20.80;1.00
52879;DHT22;38747;53.140;6.498;2023-09-08T08:35:51;21.00;1.00
52879;DHT22;38747;53.140;6.498;2023-09-08T08:38:17;21.10;1.00
52879;DHT22;38747;53.140;6.498;2023-09-08T08:40:43;21.20;1.00
52879;DHT22;38747;53.140;6.498;2023-09-08T08:43:09;21.30;99.90
52879;DHT22;38747;53.140;6.498;2023-09-08T08:45:37;21.40;99.90
52879;DHT22;38747;53.140;6.498;2023-09-08T08:48:04;21.60;99.90
52879;DHT22;38747;53.140;6.498;2023-09-08T08:50:31;21.80;99.90
52879;DHT22;38747;53.140;6.498;2023-09-08T08:52:57;21.90;99.90
52879;DHT22;38747;53.140;6.498;2023-09-08T08:55:25;22.10;99.90
52879;DHT22;38747;53.140;6.498;2023-09-08T08:57:52;22.30;99.90
52879;DHT22;38747;53.140;6.498;2023-09-08T09:00:18;22.50;99.90
52879;DHT22;38747;53.140;6.498;2023-09-08T09:02:45;22.70;99.90
52879;DHT22;38747;53.140;6.498;2023-09-08T09:05:14;22.90;99.50
52879;DHT22;38747;53.140;6.498;2023-09-08T09:07:43;23.00;1.00
52879;DHT22;38747;53.140;6.498;2023-09-08T09:10:09;23.20;99.90
52879;DHT22;38747;53.140;6.498;2023-09-08T09:12:39;23.40;99.90
52879;DHT22;38747;53.140;6.498;2023-09-08T09:15:05;23.50;99.90
52879;DHT22;38747;53.140;6.498;2023-09-08T09:17:35;23.70;99.90
52879;DHT22;38747;53.140;6.498;2023-09-08T09:20:16;23.90;1.00
52879;DHT22;38747;53.140;6.498;2023-09-08T09:22:43;24.00;99.90
52879;DHT22;38747;53.140;6.498;2023-09-08T09:25:09;24.20;52.70
52879;DHT22;38747;53.140;6.498;2023-09-08T09:27:36;24.30;99.90
52879;DHT22;38747;53.140;6.498;2023-09-08T09:30:04;24.40;40.60
52879;DHT22;38747;53.140;6.498;2023-09-08T09:32:30;24.50;99.90
52879;DHT22;38747;53.140;6.498;2023-09-08T09:34:57;24.70;99.90
52879;DHT22;38747;53.140;6.498;2023-09-08T09:37:23;24.80;99.90
52879;DHT22;38747;53.140;6.498;2023-09-08T09:39:50;24.90;99.90
52879;DHT22;38747;53.140;6.498;2023-09-08T09:42:17;25.00;1.20
52879;DHT22;38747;53.140;6.498;2023-09-08T09:44:43;25.10;1.00
52879;DHT22;38747;53.140;6.498;2023-09-08T09:47:09;25.20;64.90
52879;DHT22;38747;53.140;6.498;2023-09-08T09:49:45;25.30;1.00
52879;DHT22;38747;53.140;6.498;2023-09-08T09:52:12;25.40;99.90
52879;DHT22;38747;53.140;6.498;2023-09-08T09:54:42;25.50;99.90
52879;DHT22;38747;53.140;6.498;2023-09-08T09:57:12;25.60;99.90
52879;DHT22;38747;53.140;6.498;2023-09-08T09:59:42;25.70;99.90
52879;DHT22;38747;53.140;6.498;2023-09-08T10:02:12;25.80;1.00
52879;DHT22;38747;53.140;6.498;2023-09-08T10:04:40;25.90;99.90
52879;DHT22;38747;53.140;6.498;2023-09-08T10:07:06;25.90;99.90
52879;DHT22;38747;53.140;6.498;2023-09-08T10:09:32;26.00;19.60
52879;DHT22;38747;53.140;6.498;2023-09-08T10:12:03;26.00;32.80
52879;DHT22;38747;53.140;6.498;2023-09-08T10:14:30;26.10;24.30
52879;DHT22;38747;53.140;6.498;2023-09-08T10:16:59;26.20;1.00
52879;DHT22;38747;53.140;6.498;2023-09-08T10:19:26;26.30;1.00
52879;DHT22;38747;53.140;6.498;2023-09-08T10:21:57;26.40;1.00
52879;DHT22;38747;53.140;6.498;2023-09-08T10:24:27;26.50;99.90
52879;DHT22;38747;53.140;6.498;2023-09-08T10:27:05;26.50;99.90
52879;DHT22;38747;53.140;6.498;2023-09-08T10:29:34;26.60;99.50
52879;DHT22;38747;53.140;6.498;2023-09-08T10:32:01;26.70;85.50
52879;DHT22;38747;53.140;6.498;2023-09-08T10:34:28;26.80;13.70
52879;DHT22;38747;53.140;6.498;2023-09-08T10:36:55;26.80;1.00
52879;DHT22;38747;53.140;6.498;2023-09-08T10:39:32;26.90;1.00
52879;DHT22;38747;53.140;6.498;2023-09-08T10:45:02;27.10;99.90
52879;DHT22;38747;53.140;6.498;2023-09-08T10:50:18;27.30;99.90
52879;DHT22;38747;53.140;6.498;2023-09-08T10:52:44;27.40;99.90
52879;DHT22;38747;53.140;6.498;2023-09-08T10:55:11;27.50;99.90
52879;DHT22;38747;53.140;6.498;2023-09-08T10:57:44;27.50;99.90
52879;DHT22;38747;53.140;6.498;2023-09-08T11:00:11;27.60;82.60
52879;DHT22;38747;53.140;6.498;2023-09-08T11:02:48;27.60;1.00
52879;DHT22;38747;53.140;6.498;2023-09-08T11:05:15;27.70;1.00
52879;DHT22;38747;53.140;6.498;2023-09-08T11:07:43;27.70;1.00
52879;DHT22;38747;53.140;6.498;2023-09-08T11:10:10;27.80;1.00
52879;DHT22;38747;53.140;6.498;2023-09-08T11:12:36;27.90;12.10
52879;DHT22;38747;53.140;6.498;2023-09-08T11:15:06;28.00;15.60
52879;DHT22;38747;53.140;6.498;2023-09-08T11:17:34;28.10;1.00
52879;DHT22;38747;53.140;6.498;2023-09-08T11:20:02;28.10;1.00
52879;DHT22;38747;53.140;6.498;2023-09-08T11:22:34;28.20;99.90
52879;DHT22;38747;53.140;6.498;2023-09-08T11:25:01;28.30;99.90
52879;DHT22;38747;53.140;6.498;2023-09-08T11:27:30;28.30;99.90
52879;DHT22;38747;53.140;6.498;2023-09-08T11:29:56;28.40;99.90
52879;DHT22;38747;53.140;6.498;2023-09-08T11:32:23;28.50;99.90
52879;DHT22;38747;53.140;6.498;2023-09-08T11:34:48;28.50;1.00
52879;DHT22;38747;53.140;6.498;2023-09-08T11:37:16;28.60;99.90
52879;DHT22;38747;53.140;6.498;2023-09-08T11:39:46;28.60;1.00
52879;DHT22;38747;53.140;6.498;2023-09-08T11:42:14;28.70;99.90
52879;DHT22;38747;53.140;6.498;2023-09-08T11:44:43;28.70;99.90
52879;DHT22;38747;53.140;6.498;2023-09-08T11:47:10;28.80;99.90
52879;DHT22;38747;53.140;6.498;2023-09-08T11:49:37;28.80;99.90
52879;DHT22;38747;53.140;6.498;2023-09-08T11:52:03;28.90;99.90
52879;DHT22;38747;53.140;6.498;2023-09-08T11:54:35;28.90;99.90
52879;DHT22;38747;53.140;6.498;2023-09-08T11:57:02;29.00;99.90
52879;DHT22;38747;53.140;6.498;2023-09-08T11:59:31;29.10;99.90
52879;DHT22;38747;53.140;6.498;2023-09-08T12:01:58;29.10;26.80
52879;DHT22;38747;53.140;6.498;2023-09-08T12:04:24;29.20;1.00
52879;DHT22;38747;53.140;6.498;2023-09-08T12:06:51;29.20;94.90
52879;DHT22;38747;53.140;6.498;2023-09-08T12:09:18;29.30;99.90
52879;DHT22;38747;53.140;6.498;2023-09-08T12:11:43;29.30;98.60
52879;DHT22;38747;53.140;6.498;2023-09-08T12:14:14;29.40;62.80
52879;DHT22;38747;53.140;6.498;2023-09-08T12:16:41;29.30;1.00
52879;DHT22;38747;53.140;6.498;2023-09-08T12:19:07;29.40;1.00
52879;DHT22;38747;53.140;6.498;2023-09-08T12:21:55;29.50;66.40
52879;DHT22;38747;53.140;6.498;2023-09-08T12:24:48;29.50;1.00
52879;DHT22;38747;53.140;6.498;2023-09-08T12:27:18;29.60;99.90
52879;DHT22;38747;53.140;6.498;2023-09-08T12:29:58;29.60;1.00
52879;DHT22;38747;53.140;6.498;2023-09-08T12:32:25;29.60;99.90
52879;DHT22;38747;53.140;6.498;2023-09-08T12:34:52;29.70;99.90
52879;DHT22;38747;53.140;6.498;2023-09-08T12:37:25;29.60;99.90
52879;DHT22;38747;53.140;6.498;2023-09-08T12:39:54;29.60;1.00
52879;DHT22;38747;53.140;6.498;2023-09-08T12:42:20;29.70;99.90
52879;DHT22;38747;53.140;6.498;2023-09-08T12:44:47;29.80;1.00
52879;DHT22;38747;53.140;6.498;2023-09-08T12:47:12;29.80;99.90
52879;DHT22;38747;53.140;6.498;2023-09-08T12:49:39;29.80;99.90
52879;DHT22;38747;53.140;6.498;2023-09-08T12:52:05;29.90;99.90
52879;DHT22;38747;53.140;6.498;2023-09-08T12:54:31;30.00;99.90
52879;DHT22;38747;53.140;6.498;2023-09-08T12:56:56;29.90;99.90
52879;DHT22;38747;53.140;6.498;2023-09-08T12:59:22;29.90;99.90
52879;DHT22;38747;53.140;6.498;2023-09-08T13:01:47;29.90;1.00
52879;DHT22;38747;53.140;6.498;2023-09-08T13:04:13;29.90;99.90
52879;DHT22;38747;53.140;6.498;2023-09-08T13:06:39;29.90;99.90
52879;DHT22;38747;53.140;6.498;2023-09-08T13:09:05;29.90;99.90
52879;DHT22;38747;53.140;6.498;2023-09-08T13:11:31;29.90;99.90
52879;DHT22;38747;53.140;6.498;2023-09-08T13:13:57;29.90;99.90
52879;DHT22;38747;53.140;6.498;2023-09-08T13:16:22;29.90;99.90
52879;DHT22;38747;53.140;6.498;2023-09-08T13:18:48;30.00;1.00
52879;DHT22;38747;53.140;6.498;2023-09-08T13:21:14;30.00;99.90
52879;DHT22;38747;53.140;6.498;2023-09-08T13:23:40;30.00;99.90
52879;DHT22;38747;53.140;6.498;2023-09-08T13:26:06;29.90;99.90
52879;DHT22;38747;53.140;6.498;2023-09-08T13:28:31;29.90;99.90
52879;DHT22;38747;53.140;6.498;2023-09-08T13:30:57;29.90;99.90
52879;DHT22;38747;53.140;6.498;2023-09-08T13:33:23;29.90;99.90
52879;DHT22;38747;53.140;6.498;2023-09-08T13:35:49;29.90;99.90
52879;DHT22;38747;53.140;6.498;2023-09-08T13:38:14;29.90;99.90
52879;DHT22;38747;53.140;6.498;2023-09-08T13:40:40;30.00;99.90
52879;DHT22;38747;53.140;6.498;2023-09-08T13:43:06;30.00;99.90
52879;DHT22;38747;53.140;6.498;2023-09-08T13:45:33;30.00;99.90
52879;DHT22;38747;53.140;6.498;2023-09-08T13:47:58;30.00;99.90
52879;DHT22;38747;53.140;6.498;2023-09-08T13:50:24;29.90;99.90
52879;DHT22;38747;53.140;6.498;2023-09-08T13:52:50;29.90;99.90
52879;DHT22;38747;53.140;6.498;2023-09-08T13:55:15;29.90;1.00
52879;DHT22;38747;53.140;6.498;2023-09-08T13:57:41;30.00;99.90
52879;DHT22;38747;53.140;6.498;2023-09-08T14:00:07;30.00;99.90
52879;DHT22;38747;53.140;6.498;2023-09-08T14:02:37;30.00;99.90
52879;DHT22;38747;53.140;6.498;2023-09-08T14:05:02;30.00;99.90
52879;DHT22;38747;53.140;6.498;2023-09-08T14:07:28;29.90;99.90
52879;DHT22;38747;53.140;6.498;2023-09-08T14:09:54;29.80;99.90
52879;DHT22;38747;53.140;6.498;2023-09-08T14:12:19;29.90;99.90
52879;DHT22;38747;53.140;6.498;2023-09-08T14:14:45;29.80;99.90
52879;DHT22;38747;53.140;6.498;2023-09-08T14:17:10;29.80;99.90
52879;DHT22;38747;53.140;6.498;2023-09-08T14:19:36;29.80;99.90
52879;DHT22;38747;53.140;6.498;2023-09-08T14:22:01;29.80;99.90
52879;DHT22;38747;53.140;6.498;2023-09-08T14:24:27;29.70;99.90
52879;DHT22;38747;53.140;6.498;2023-09-08T14:26:53;29.70;99.90
52879;DHT22;38747;53.140;6.498;2023-09-08T14:29:20;29.70;99.90
52879;DHT22;38747;53.140;6.498;2023-09-08T14:31:46;29.70;42.90
52879;DHT22;38747;53.140;6.498;2023-09-08T14:34:12;29.70;45.00
52879;DHT22;38747;53.140;6.498;2023-09-08T14:36:38;29.60;26.10
52879;DHT22;38747;53.140;6.498;2023-09-08T14:39:03;29.60;91.80
52879;DHT22;38747;53.140;6.498;2023-09-08T14:41:29;29.60;99.90
52879;DHT22;38747;53.140;6.498;2023-09-08T14:43:55;29.50;94.50
52879;DHT22;38747;53.140;6.498;2023-09-08T14:46:20;29.50;99.90
52879;DHT22;38747;53.140;6.498;2023-09-08T14:48:46;29.40;88.40
52879;DHT22;38747;53.140;6.498;2023-09-08T14:51:12;29.40;81.20
52879;DHT22;38747;53.140;6.498;2023-09-08T14:53:38;29.30;99.90
52879;DHT22;38747;53.140;6.498;2023-09-08T14:56:03;29.20;86.20
52879;DHT22;38747;53.140;6.498;2023-09-08T14:58:30;29.20;77.00
52879;DHT22;38747;53.140;6.498;2023-09-08T15:01:06;29.10;97.50
52879;DHT22;38747;53.140;6.498;2023-09-08T15:03:36;29.00;83.90
52879;DHT22;38747;53.140;6.498;2023-09-08T15:06:02;28.90;64.20
52879;DHT22;38747;53.140;6.498;2023-09-08T15:08:28;28.90;73.80
52879;DHT22;38747;53.140;6.498;2023-09-08T15:10:54;28.90;90.20
52879;DHT22;38747;53.140;6.498;2023-09-08T15:13:20;28.80;97.10
52879;DHT22;38747;53.140;6.498;2023-09-08T15:15:45;28.80;92.20
52879;DHT22;38747;53.140;6.498;2023-09-08T15:18:11;28.70;99.90
52879;DHT22;38747;53.140;6.498;2023-09-08T15:20:37;28.70;99.90
52879;DHT22;38747;53.140;6.498;2023-09-08T15:23:03;28.70;99.90
52879;DHT22;38747;53.140;6.498;2023-09-08T15:25:29;28.70;99.90
52879;DHT22;38747;53.140;6.498;2023-09-08T15:27:54;28.60;99.90
52879;DHT22;38747;53.140;6.498;2023-09-08T15:30:20;28.60;99.90
52879;DHT22;38747;53.140;6.498;2023-09-08T15:32:46;28.60;99.90
52879;DHT22;38747;53.140;6.498;2023-09-08T15:35:11;28.50;99.90
52879;DHT22;38747;53.140;6.498;2023-09-08T15:37:37;28.50;99.90
52879;DHT22;38747;53.140;6.498;2023-09-08T15:40:03;28.50;99.90